sensor_id;sensor_type;location;lat;lon;timestamp;P1;durP1;ratioP1;P2;durP2;ratioP2
70457;SDS011;57919;56.194;95.716;2023-02-01T00:09:35;39.90;;;18.53;;
70457;SDS011;57919;56.194;95.716;2023-02-01T00:19:37;86.85;;;40.17;;
70457;SDS011;57919;56.194;95.716;2023-02-01T00:29:39;29.33;;;15.87;;
70457;SDS011;57919;56.194;95.716;2023-02-01T00:39:41;47.67;;;20.33;;
70457;SDS011;57919;56.194;95.716;2023-02-01T00:49:43;19.75;;;8.35;;
70457;SDS011;57919;56.194;95.716;2023-02-01T00:59:45;60.67;;;28.23;;
70457;SDS011;57919;56.194;95.716;2023-02-01T01:09:47;44.60;;;24.40;;
70457;SDS011;57919;56.194;95.716;2023-02-01T01:19:48;34.08;;;16.15;;
70457;SDS011;57919;56.194;95.716;2023-02-01T01:29:50;39.75;;;21.73;;
70457;SDS011;57919;56.194;95.716;2023-02-01T01:39:53;15.57;;;10.63;;
70457;SDS011;57919;56.194;95.716;2023-02-01T01:49:57;23.63;;;16.03;;
70457;SDS011;57919;56.194;95.716;2023-02-01T02:00:01;56.47;;;31.75;;
70457;SDS011;57919;56.194;95.716;2023-02-01T02:10:14;44.83;;;33.03;;
70457;SDS011;57919;56.194;95.716;2023-02-01T02:30:35;83.22;;;41.80;;
70457;SDS011;57919;56.194;95.716;2023-02-01T02:41:10;49.77;;;24.90;;
70457;SDS011;57919;56.194;95.716;2023-02-01T03:02:07;61.47;;;33.65;;
70457;SDS011;57919;56.194;95.716;2023-02-01T03:12:31;59.08;;;32.00;;
70457;SDS011;57919;56.194;95.716;2023-02-01T03:22:56;109.33;;;59.73;;
70457;SDS011;57919;56.194;95.716;2023-02-01T03:33:01;82.17;;;48.47;;
70457;SDS011;57919;56.194;95.716;2023-02-01T03:43:09;99.80;;;56.10;;
70457;SDS011;57919;56.194;95.716;2023-02-01T03:53:17;21.53;;;11.53;;
70457;SDS011;57919;56.194;95.716;2023-02-01T04:03:25;20.60;;;15.07;;
70457;SDS011;57919;56.194;95.716;2023-02-01T04:13:28;28.40;;;13.55;;
70457;SDS011;57919;56.194;95.716;2023-02-01T04:23:29;26.50;;;10.93;;
70457;SDS011;57919;56.194;95.716;2023-02-01T04:33:32;22.13;;;10.73;;
70457;SDS011;57919;56.194;95.716;2023-02-01T04:43:34;21.40;;;8.85;;
70457;SDS011;57919;56.194;95.716;2023-02-01T04:53:36;38.70;;;12.80;;
70457;SDS011;57919;56.194;95.716;2023-02-01T05:03:38;13.30;;;7.67;;
70457;SDS011;57919;56.194;95.716;2023-02-01T05:13:40;31.43;;;17.03;;
70457;SDS011;57919;56.194;95.716;2023-02-01T05:23:51;35.28;;;15.95;;
70457;SDS011;57919;56.194;95.716;2023-02-01T05:34:11;21.13;;;8.50;;
70457;SDS011;57919;56.194;95.716;2023-02-01T05:44:13;15.17;;;11.17;;
70457;SDS011;57919;56.194;95.716;2023-02-01T05:54:15;23.88;;;14.68;;
70457;SDS011;57919;56.194;95.716;2023-02-01T06:04:17;22.90;;;13.13;;
70457;SDS011;57919;56.194;95.716;2023-02-01T06:14:19;26.90;;;9.10;;
70457;SDS011;57919;56.194;95.716;2023-02-01T06:24:21;62.72;;;27.63;;
70457;SDS011;57919;56.194;95.716;2023-02-01T06:34:23;57.58;;;24.63;;
70457;SDS011;57919;56.194;95.716;2023-02-01T06:44:25;18.30;;;11.57;;
70457;SDS011;57919;56.194;95.716;2023-02-01T06:54:27;50.37;;;19.43;;
70457;SDS011;57919;56.194;95.716;2023-02-01T07:04:29;32.88;;;15.73;;
70457;SDS011;57919;56.194;95.716;2023-02-01T07:14:31;28.27;;;9.30;;
70457;SDS011;57919;56.194;95.716;2023-02-01T07:24:33;30.83;;;9.70;;
70457;SDS011;57919;56.194;95.716;2023-02-01T07:34:35;44.55;;;19.13;;
70457;SDS011;57919;56.194;95.716;2023-02-01T07:44:37;33.80;;;17.70;;
70457;SDS011;57919;56.194;95.716;2023-02-01T07:54:39;330.07;;;110.13;;
70457;SDS011;57919;56.194;95.716;2023-02-01T08:04:41;150.77;;;53.25;;
70457;SDS011;57919;56.194;95.716;2023-02-01T08:14:43;66.22;;;25.55;;
70457;SDS011;57919;56.194;95.716;2023-02-01T08:24:47;126.50;;;40.63;;
70457;SDS011;57919;56.194;95.716;2023-02-01T08:34:49;73.00;;;28.10;;
70457;SDS011;57919;56.194;95.716;2023-02-01T08:44:51;48.90;;;20.02;;
70457;SDS011;57919;56.194;95.716;2023-02-01T08:54:53;37.43;;;15.97;;
70457;SDS011;57919;56.194;95.716;2023-02-01T09:04:55;50.27;;;17.40;;
70457;SDS011;57919;56.194;95.716;2023-02-01T09:14:58;102.07;;;37.70;;
70457;SDS011;57919;56.194;95.716;2023-02-01T09:25:00;135.63;;;49.83;;
70457;SDS011;57919;56.194;95.716;2023-02-01T09:35:02;121.47;;;49.70;;
70457;SDS011;57919;56.194;95.716;2023-02-01T09:45:22;152.10;;;66.03;;
70457;SDS011;57919;56.194;95.716;2023-02-01T10:16:27;113.97;;;52.23;;
70457;SDS011;57919;56.194;95.716;2023-02-01T10:27:02;121.97;;;52.78;;
70457;SDS011;57919;56.194;95.716;2023-02-01T10:37:24;109.27;;;50.17;;
70457;SDS011;57919;56.194;95.716;2023-02-01T10:47:30;100.47;;;44.43;;
70457;SDS011;57919;56.194;95.716;2023-02-01T10:57:31;94.43;;;42.60;;
70457;SDS011;57919;56.194;95.716;2023-02-01T11:07:33;110.30;;;42.23;;
70457;SDS011;57919;56.194;95.716;2023-02-01T11:17:39;66.27;;;34.03;;
70457;SDS011;57919;56.194;95.716;2023-02-01T11:27:43;38.58;;;24.85;;
70457;SDS011;57919;56.194;95.716;2023-02-01T11:37:48;141.98;;;56.22;;
70457;SDS011;57919;56.194;95.716;2023-02-01T11:48:00;57.63;;;34.33;;
70457;SDS011;57919;56.194;95.716;2023-02-01T12:08:28;163.57;;;63.40;;
70457;SDS011;57919;56.194;95.716;2023-02-01T12:40:13;58.22;;;43.30;;
70457;SDS011;57919;56.194;95.716;2023-02-01T12:50:41;89.57;;;48.73;;
70457;SDS011;57919;56.194;95.716;2023-02-01T13:00:51;93.67;;;45.60;;
70457;SDS011;57919;56.194;95.716;2023-02-01T13:11:14;39.80;;;25.52;;
70457;SDS011;57919;56.194;95.716;2023-02-01T13:21:27;50.28;;;38.53;;
70457;SDS011;57919;56.194;95.716;2023-02-01T13:41:58;67.10;;;45.80;;
70457;SDS011;57919;56.194;95.716;2023-02-01T13:52:17;96.22;;;43.03;;
70457;SDS011;57919;56.194;95.716;2023-02-01T14:12:45;112.83;;;48.40;;
70457;SDS011;57919;56.194;95.716;2023-02-01T14:22:50;81.75;;;37.78;;
70457;SDS011;57919;56.194;95.716;2023-02-01T14:32:52;72.23;;;39.57;;
70457;SDS011;57919;56.194;95.716;2023-02-01T14:42:54;51.60;;;28.23;;
70457;SDS011;57919;56.194;95.716;2023-02-01T15:13:51;194.67;;;81.63;;
70457;SDS011;57919;56.194;95.716;2023-02-01T15:24:12;160.53;;;72.83;;
70457;SDS011;57919;56.194;95.716;2023-02-01T15:34:44;118.18;;;52.55;;
70457;SDS011;57919;56.194;95.716;2023-02-01T15:44:48;114.77;;;62.83;;
70457;SDS011;57919;56.194;95.716;2023-02-01T15:54:51;174.40;;;98.23;;
70457;SDS011;57919;56.194;95.716;2023-02-01T16:05:00;106.30;;;64.13;;
70457;SDS011;57919;56.194;95.716;2023-02-01T16:15:04;118.93;;;71.47;;
70457;SDS011;57919;56.194;95.716;2023-02-01T16:25:07;153.87;;;81.57;;
70457;SDS011;57919;56.194;95.716;2023-02-01T16:35:31;183.05;;;91.78;;
70457;SDS011;57919;56.194;95.716;2023-02-01T16:45:38;108.60;;;64.47;;
70457;SDS011;57919;56.194;95.716;2023-02-01T16:55:41;124.77;;;50.70;;
70457;SDS011;57919;56.194;95.716;2023-02-01T17:05:54;80.87;;;37.73;;
70457;SDS011;57919;56.194;95.716;2023-02-01T17:16:02;75.85;;;42.90;;
70457;SDS011;57919;56.194;95.716;2023-02-01T17:26:22;112.47;;;49.10;;
70457;SDS011;57919;56.194;95.716;2023-02-01T17:36:28;87.50;;;47.30;;
70457;SDS011;57919;56.194;95.716;2023-02-01T17:46:30;88.40;;;41.53;;
70457;SDS011;57919;56.194;95.716;2023-02-01T17:56:33;76.60;;;35.57;;
70457;SDS011;57919;56.194;95.716;2023-02-01T18:06:35;67.67;;;39.77;;
70457;SDS011;57919;56.194;95.716;2023-02-01T18:16:37;62.60;;;31.48;;
70457;SDS011;57919;56.194;95.716;2023-02-01T18:26:39;54.13;;;26.23;;
70457;SDS011;57919;56.194;95.716;2023-02-01T18:36:42;55.67;;;29.40;;
70457;SDS011;57919;56.194;95.716;2023-02-01T18:46:44;49.67;;;21.90;;
70457;SDS011;57919;56.194;95.716;2023-02-01T18:56:46;77.78;;;35.35;;
70457;SDS011;57919;56.194;95.716;2023-02-01T19:06:48;82.53;;;33.57;;
70457;SDS011;57919;56.194;95.716;2023-02-01T19:16:49;68.93;;;33.83;;
70457;SDS011;57919;56.194;95.716;2023-02-01T19:26:52;94.13;;;45.53;;
70457;SDS011;57919;56.194;95.716;2023-02-01T19:36:54;101.17;;;53.63;;
70457;SDS011;57919;56.194;95.716;2023-02-01T19:46:56;105.93;;;49.03;;
70457;SDS011;57919;56.194;95.716;2023-02-01T19:56:58;93.25;;;45.72;;
70457;SDS011;57919;56.194;95.716;2023-02-01T20:06:59;164.35;;;63.08;;
70457;SDS011;57919;56.194;95.716;2023-02-01T20:17:01;67.57;;;34.53;;
70457;SDS011;57919;56.194;95.716;2023-02-01T20:27:04;46.37;;;26.47;;
70457;SDS011;57919;56.194;95.716;2023-02-01T20:37:06;84.50;;;36.22;;
70457;SDS011;57919;56.194;95.716;2023-02-01T20:47:08;50.20;;;30.37;;
70457;SDS011;57919;56.194;95.716;2023-02-01T20:57:10;43.20;;;21.63;;
70457;SDS011;57919;56.194;95.716;2023-02-01T21:07:12;36.55;;;23.25;;
70457;SDS011;57919;56.194;95.716;2023-02-01T21:17:14;43.40;;;23.27;;
70457;SDS011;57919;56.194;95.716;2023-02-01T21:27:16;35.77;;;22.93;;
70457;SDS011;57919;56.194;95.716;2023-02-01T21:37:18;67.47;;;22.52;;
70457;SDS011;57919;56.194;95.716;2023-02-01T21:47:25;39.65;;;22.70;;
70457;SDS011;57919;56.194;95.716;2023-02-01T21:58:59;44.40;;;20.03;;
70457;SDS011;57919;56.194;95.716;2023-02-01T22:09:01;31.43;;;18.00;;
70457;SDS011;57919;56.194;95.716;2023-02-01T22:19:03;31.13;;;20.50;;
70457;SDS011;57919;56.194;95.716;2023-02-01T22:29:06;17.98;;;8.63;;
70457;SDS011;57919;56.194;95.716;2023-02-01T22:39:08;26.03;;;16.90;;
70457;SDS011;57919;56.194;95.716;2023-02-01T22:49:11;34.43;;;17.97;;
70457;SDS011;57919;56.194;95.716;2023-02-01T22:59:14;23.52;;;15.15;;
70457;SDS011;57919;56.194;95.716;2023-02-01T23:09:17;7.97;;;7.20;;
70457;SDS011;57919;56.194;95.716;2023-02-01T23:19:21;31.07;;;19.03;;
70457;SDS011;57919;56.194;95.716;2023-02-01T23:29:23;30.63;;;19.60;;
70457;SDS011;57919;56.194;95.716;2023-02-01T23:39:25;23.52;;;13.88;;
70457;SDS011;57919;56.194;95.716;2023-02-01T23:49:27;36.27;;;17.77;;
70457;SDS011;57919;56.194;95.716;2023-02-01T23:59:29;20.90;;;11.93;;
